Time;durP1;ratioP1;P1;durP2;ratioP2;P2;SDS_P1;SDS_P2;PMS_P1;PMS_P2;Temp;Humidity;BMP_temperature;BMP_pressure;BME280_temperature;BME280_humidity;BME280_pressure;Samples;Min_cycle;Max_cycle;Signal;HPM_P1;HPM_P2
2023/08/26 00:00:52;;;;;;;23.65;8.55;;;;;;;;;;5053334;28;20053;-66
2023/08/26 00:03:18;;;;;;;17.05;8.23;;;;;;;;;;5051725;28;20029;-66
2023/08/26 00:05:43;;;;;;;11.93;8.38;;;;;;;;;;5051344;28;20408;-66
2023/08/26 00:08:09;;;;;;;17.20;8.43;;;;;;;;;;5051236;28;20036;-66
2023/08/26 00:10:35;;;;;;;22.17;8.40;;;;;;;;;;5051086;28;20052;-66
2023/08/26 00:13:00;;;;;;;26.23;8.15;;;;;;;;;;5050405;28;20047;-72
2023/08/26 00:15:26;;;;;;;17.50;8.57;;;;;;;;;;5050190;28;20106;-66
2023/08/26 00:17:52;;;;;;;18.95;8.15;;;;;;;;;;5050958;28;20128;-66
2023/08/26 00:20:21;;;;;;;18.20;8.55;;;;;;;;;;5050591;28;20048;-66
2023/08/26 00:22:47;;;;;;;29.77;8.68;;;;;;;;;;5049663;28;20040;-66
2023/08/26 00:25:12;;;;;;;18.70;8.70;;;;;;;;;;5051075;28;20450;-66
2023/08/26 00:27:38;;;;;;;21.05;8.20;;;;;;;;;;5051313;28;20090;-66
2023/08/26 00:30:04;;;;;;;19.45;8.05;;;;;;;;;;5050021;28;20037;-66
2023/08/26 00:32:30;;;;;;;17.45;7.68;;;;;;;;;;5050572;28;20041;-66
2023/08/26 00:34:56;;;;;;;28.02;8.00;;;;;;;;;;5033318;28;20048;-66
2023/08/26 00:37:22;;;;;;;19.50;7.88;;;;;;;;;;5050544;28;20116;-66
2023/08/26 00:39:47;;;;;;;23.77;7.60;;;;;;;;;;5049928;28;20047;-66
2023/08/26 00:42:13;;;;;;;20.33;8.23;;;;;;;;;;5049405;28;20468;-66
2023/08/26 00:44:39;;;;;;;26.60;9.02;;;;;;;;;;5050649;28;20776;-66
2023/08/26 00:47:05;;;;;;;17.08;7.88;;;;;;;;;;5050536;28;20033;-67
2023/08/26 00:49:31;;;;;;;17.75;8.73;;;;;;;;;;5050041;28;20183;-66
2023/08/26 00:51:58;;;;;;;24.27;8.85;;;;;;;;;;5033394;28;20128;-66
2023/08/26 00:54:24;;;;;;;18.80;8.27;;;;;;;;;;5049793;28;20124;-66
2023/08/26 00:56:50;;;;;;;33.22;9.00;;;;;;;;;;5050356;28;20080;-66
2023/08/26 00:59:16;;;;;;;17.95;8.60;;;;;;;;;;5016944;28;20123;-67
2023/08/26 01:01:41;;;;;;;19.08;8.45;;;;;;;;;;5049495;28;20072;-66
2023/08/26 01:04:07;;;;;;;22.90;8.38;;;;;;;;;;5049853;28;20079;-67
2023/08/26 01:06:32;;;;;;;20.17;8.77;;;;;;;;;;5053897;28;20474;-66
2023/08/26 01:08:58;;;;;;;22.73;8.70;;;;;;;;;;5055736;28;20037;-66
2023/08/26 01:11:33;;;;;;;25.02;8.40;;;;;;;;;;5052590;28;20033;-65
2023/08/26 01:14:08;;;;;;;25.45;8.43;;;;;;;;;;5033164;28;20123;-65
2023/08/26 01:16:35;;;;;;;20.45;9.57;;;;;;;;;;5049703;28;20135;-66
2023/08/26 01:19:02;;;;;;;15.68;8.23;;;;;;;;;;5049687;28;20033;-66
2023/08/26 01:21:35;;;;;;;21.77;7.95;;;;;;;;;;5032666;28;20072;-66
2023/08/26 01:24:01;;;;;;;21.23;8.80;;;;;;;;;;5050092;28;20483;-67
2023/08/26 01:26:27;;;;;;;14.75;8.10;;;;;;;;;;5050059;28;20055;-66
2023/08/26 01:28:53;;;;;;;19.20;8.00;;;;;;;;;;5049373;28;20037;-66
2023/08/26 01:31:19;;;;;;;18.42;8.13;;;;;;;;;;5049752;28;20062;-66
2023/08/26 01:34:11;;;;;;;24.98;8.32;;;;;;;;;;5016437;28;20094;-66
2023/08/26 01:36:41;;;;;;;17.95;7.78;;;;;;;;;;5031492;28;20072;-69
2023/08/26 01:39:07;;;;;;;14.15;7.95;;;;;;;;;;5031524;28;20126;-67
2023/08/26 01:41:34;;;;;;;21.10;8.27;;;;;;;;;;5031259;28;20467;-67
2023/08/26 01:44:00;;;;;;;23.45;8.75;;;;;;;;;;5031888;28;20036;-66
2023/08/26 01:46:36;;;;;;;29.60;9.25;;;;;;;;;;5031483;28;20045;-67
2023/08/26 01:49:02;;;;;;;17.05;8.27;;;;;;;;;;5032970;28;20467;-66
2023/08/26 01:51:30;;;;;;;19.08;8.70;;;;;;;;;;5049234;28;20041;-66
2023/08/26 01:53:55;;;;;;;15.07;7.78;;;;;;;;;;5033170;28;20107;-66
2023/08/26 01:56:21;;;;;;;17.48;8.13;;;;;;;;;;5033206;28;20468;-65
2023/08/26 01:58:46;;;;;;;18.77;8.32;;;;;;;;;;5049142;28;20029;-66
2023/08/26 02:01:12;;;;;;;15.77;8.07;;;;;;;;;;5036076;28;20045;-66
2023/08/26 02:03:38;;;;;;;17.38;8.13;;;;;;;;;;5036197;28;20063;-66
2023/08/26 02:06:03;;;;;;;15.13;8.07;;;;;;;;;;5053239;28;20044;-65
2023/08/26 02:08:29;;;;;;;15.52;8.13;;;;;;;;;;5053435;28;20490;-65
2023/08/26 02:10:58;;;;;;;19.48;7.90;;;;;;;;;;5037039;28;20047;-66
2023/08/26 02:13:25;;;;;;;25.88;8.63;;;;;;;;;;5052688;28;20037;-66
2023/08/26 02:15:54;;;;;;;17.70;7.65;;;;;;;;;;5053796;28;20037;-66
2023/08/26 02:18:20;;;;;;;16.00;8.07;;;;;;;;;;5052768;28;20040;-66
2023/08/26 02:20:45;;;;;;;13.90;7.68;;;;;;;;;;5052918;28;20056;-66
2023/08/26 02:23:12;;;;;;;14.43;7.60;;;;;;;;;;5036053;28;20032;-65
2023/08/26 02:25:38;;;;;;;12.65;7.57;;;;;;;;;;5035775;28;20091;-66
2023/08/26 02:28:04;;;;;;;12.80;7.60;;;;;;;;;;5036932;28;20048;-66
2023/08/26 02:30:30;;;;;;;12.98;7.70;;;;;;;;;;5052143;28;20037;-66
2023/08/26 02:32:56;;;;;;;15.63;7.85;;;;;;;;;;5052830;28;20040;-66
2023/08/26 02:35:22;;;;;;;13.82;8.20;;;;;;;;;;5052036;28;20041;-66
2023/08/26 02:37:47;;;;;;;15.43;7.60;;;;;;;;;;5051784;28;20742;-66
2023/08/26 02:40:13;;;;;;;17.02;7.68;;;;;;;;;;5034321;28;20047;-66
2023/08/26 02:42:40;;;;;;;17.40;8.13;;;;;;;;;;5017303;28;20056;-66
2023/08/26 02:45:07;;;;;;;17.40;7.63;;;;;;;;;;5049629;28;20048;-66
2023/08/26 02:47:33;;;;;;;15.02;6.60;;;;;;;;;;5033756;28;20044;-66
2023/08/26 02:49:58;;;;;;;17.73;7.32;;;;;;;;;;5050289;28;20037;-67
2023/08/26 02:52:25;;;;;;;15.68;7.55;;;;;;;;;;5051501;28;20182;-66
2023/08/26 02:54:51;;;;;;;14.27;6.90;;;;;;;;;;5052067;28;20044;-67
2023/08/26 02:57:19;;;;;;;14.32;7.25;;;;;;;;;;5035756;28;20464;-66
2023/08/26 02:59:45;;;;;;;12.73;6.90;;;;;;;;;;5051222;28;20040;-66
2023/08/26 03:02:11;;;;;;;18.83;6.30;;;;;;;;;;5050964;28;20056;-66
2023/08/26 03:04:37;;;;;;;13.60;7.13;;;;;;;;;;5052441;28;20044;-67
2023/08/26 03:07:03;;;;;;;11.82;6.82;;;;;;;;;;5034813;28;20033;-66
2023/08/26 03:09:29;;;;;;;13.05;6.82;;;;;;;;;;5050904;28;20057;-67
2023/08/26 03:11:55;;;;;;;12.40;6.15;;;;;;;;;;5049572;28;20033;-66
2023/08/26 03:14:21;;;;;;;13.73;6.82;;;;;;;;;;5017672;28;20036;-66
2023/08/26 03:16:47;;;;;;;9.75;6.15;;;;;;;;;;5051370;28;20025;-67
2023/08/26 03:19:12;;;;;;;13.77;6.18;;;;;;;;;;5052471;28;20132;-66
2023/08/26 03:21:38;;;;;;;12.43;6.43;;;;;;;;;;5019512;28;20135;-67
2023/08/26 03:24:05;;;;;;;10.93;6.50;;;;;;;;;;5034942;28;20124;-66
2023/08/26 03:26:31;;;;;;;10.38;6.80;;;;;;;;;;5050720;28;20036;-66
2023/08/26 03:28:58;;;;;;;11.95;5.88;;;;;;;;;;5051959;28;20124;-66
2023/08/26 03:31:26;;;;;;;15.85;6.63;;;;;;;;;;5034913;28;20033;-66
2023/08/26 03:33:51;;;;;;;11.18;6.60;;;;;;;;;;5051953;28;20418;-66
2023/08/26 03:36:17;;;;;;;16.48;6.85;;;;;;;;;;5051001;28;20033;-66
2023/08/26 03:38:43;;;;;;;14.30;6.90;;;;;;;;;;5033943;28;20048;-66
2023/08/26 03:41:08;;;;;;;11.82;6.90;;;;;;;;;;5051739;28;20040;-66
2023/08/26 03:43:34;;;;;;;12.60;6.80;;;;;;;;;;5050783;28;20048;-66
2023/08/26 03:46:00;;;;;;;13.65;6.43;;;;;;;;;;5051832;28;20029;-66
2023/08/26 03:48:26;;;;;;;14.00;5.90;;;;;;;;;;5050476;28;20061;-66
2023/08/26 03:50:52;;;;;;;9.65;6.43;;;;;;;;;;5017519;28;20467;-66
2023/08/26 03:53:18;;;;;;;8.93;5.97;;;;;;;;;;5034113;28;20421;-66
2023/08/26 03:55:44;;;;;;;9.48;6.00;;;;;;;;;;5032214;28;20041;-66
2023/08/26 03:58:09;;;;;;;11.63;6.05;;;;;;;;;;5049611;28;20589;-66
2023/08/26 04:00:36;;;;;;;14.38;5.85;;;;;;;;;;5033200;28;20040;-66
2023/08/26 04:03:10;;;;;;;11.02;6.45;;;;;;;;;;5049738;28;20368;-66
2023/08/26 04:05:37;;;;;;;9.68;5.93;;;;;;;;;;5032798;28;20650;-66
2023/08/26 04:08:03;;;;;;;12.65;5.63;;;;;;;;;;5016256;28;20062;-66
2023/08/26 04:10:28;;;;;;;9.98;5.90;;;;;;;;;;5032138;28;20081;-66
2023/08/26 04:13:00;;;;;;;10.98;5.78;;;;;;;;;;5015363;28;20067;-66
2023/08/26 04:15:27;;;;;;;9.15;5.65;;;;;;;;;;5032619;28;20184;-66
2023/08/26 04:17:54;;;;;;;11.40;5.80;;;;;;;;;;5049491;28;20084;-66
2023/08/26 04:20:21;;;;;;;13.02;5.40;;;;;;;;;;5032267;28;20037;-66
2023/08/26 04:22:47;;;;;;;13.43;5.82;;;;;;;;;;5049164;28;20064;-66
2023/08/26 04:25:13;;;;;;;11.43;5.78;;;;;;;;;;5049090;28;20036;-66
2023/08/26 04:27:39;;;;;;;8.15;5.93;;;;;;;;;;5047875;28;20843;-67
2023/08/26 04:30:05;;;;;;;10.57;4.75;;;;;;;;;;5051211;28;20068;-66
2023/08/26 04:32:31;;;;;;;10.30;5.15;;;;;;;;;;5050749;28;20029;-67
2023/08/26 04:34:58;;;;;;;12.65;5.30;;;;;;;;;;5050135;28;20048;-67
2023/08/26 04:37:24;;;;;;;10.48;5.53;;;;;;;;;;5049393;28;20059;-65
2023/08/26 04:39:50;;;;;;;11.05;5.43;;;;;;;;;;5050266;28;20416;-66
2023/08/26 04:42:16;;;;;;;14.15;5.72;;;;;;;;;;5031833;28;20060;-66
2023/08/26 04:44:42;;;;;;;12.55;5.38;;;;;;;;;;5039429;28;20044;-66
2023/08/26 04:47:07;;;;;;;10.00;5.82;;;;;;;;;;5024593;28;20033;-66
2023/08/26 04:49:33;;;;;;;12.60;6.93;;;;;;;;;;5024676;28;20025;-65
2023/08/26 04:51:59;;;;;;;11.70;7.72;;;;;;;;;;5038277;28;20126;-66
2023/08/26 04:54:25;;;;;;;14.95;6.70;;;;;;;;;;5037618;28;20043;-66
2023/08/26 04:56:51;;;;;;;14.77;6.78;;;;;;;;;;5039441;28;20108;-66
2023/08/26 04:59:17;;;;;;;14.18;6.22;;;;;;;;;;5039958;28;20039;-66
2023/08/26 05:01:43;;;;;;;18.20;6.68;;;;;;;;;;5037896;28;20045;-67
2023/08/26 05:04:10;;;;;;;15.25;6.60;;;;;;;;;;5024584;28;20375;-68
2023/08/26 05:06:38;;;;;;;15.05;6.03;;;;;;;;;;5024675;28;20045;-67
2023/08/26 05:09:04;;;;;;;14.48;6.88;;;;;;;;;;5038648;28;20479;-67
2023/08/26 05:11:30;;;;;;;13.00;6.57;;;;;;;;;;5040322;28;20426;-68
2023/08/26 05:13:56;;;;;;;12.57;6.72;;;;;;;;;;5024976;28;20057;-68
2023/08/26 05:16:23;;;;;;;9.68;5.80;;;;;;;;;;5037638;28;20360;-67
2023/08/26 05:18:48;;;;;;;14.63;6.30;;;;;;;;;;5041451;28;20041;-68
2023/08/26 05:21:15;;;;;;;13.55;6.75;;;;;;;;;;5010161;28;20067;-68
2023/08/26 05:23:40;;;;;;;13.57;6.35;;;;;;;;;;5007861;28;20032;-68
2023/08/26 05:26:06;;;;;;;16.25;5.80;;;;;;;;;;5038397;28;20043;-67
2023/08/26 05:28:31;;;;;;;12.07;6.22;;;;;;;;;;5011521;28;20057;-67
2023/08/26 05:31:00;;;;;;;17.38;6.78;;;;;;;;;;5042214;28;20043;-67
2023/08/26 05:33:26;;;;;;;9.75;5.18;;;;;;;;;;5034350;28;20127;-69
2023/08/26 05:35:52;;;;;;;20.23;6.20;;;;;;;;;;5056296;28;20063;-69
2023/08/26 05:38:18;;;;;;;13.93;6.05;;;;;;;;;;5056830;28;20502;-70
2023/08/26 05:40:44;;;;;;;18.23;6.00;;;;;;;;;;5040492;28;20040;-69
2023/08/26 05:43:10;;;;;;;12.32;6.38;;;;;;;;;;5073007;28;20095;-68
2023/08/26 05:45:36;;;;;;;11.25;5.40;;;;;;;;;;5056954;28;20039;-68
2023/08/26 05:48:02;;;;;;;20.70;6.28;;;;;;;;;;5056856;28;20044;-66
2023/08/26 05:50:28;;;;;;;13.43;6.00;;;;;;;;;;5056063;28;20108;-68
2023/08/26 05:52:54;;;;;;;15.35;5.75;;;;;;;;;;5056142;28;20153;-68
2023/08/26 05:55:20;;;;;;;12.40;6.40;;;;;;;;;;5072185;28;20029;-68
2023/08/26 05:57:46;;;;;;;14.80;6.68;;;;;;;;;;5071974;28;20037;-68
2023/08/26 06:00:13;;;;;;;9.85;6.00;;;;;;;;;;5034365;28;20056;-68
2023/08/26 06:02:46;;;;;;;12.82;5.95;;;;;;;;;;5018598;28;20049;-67
2023/08/26 06:05:15;;;;;;;14.18;6.57;;;;;;;;;;5011996;28;20037;-67
2023/08/26 06:07:41;;;;;;;11.20;6.45;;;;;;;;;;5039703;28;20052;-69
2023/08/26 06:10:07;;;;;;;17.70;6.90;;;;;;;;;;5009490;28;20042;-69
2023/08/26 06:12:35;;;;;;;13.98;6.38;;;;;;;;;;5025578;28;20092;-68
2023/08/26 06:15:01;;;;;;;19.65;7.38;;;;;;;;;;5008933;28;20079;-68
2023/08/26 06:17:28;;;;;;;22.45;7.28;;;;;;;;;;5008202;28;20041;-68
2023/08/26 06:19:53;;;;;;;26.63;7.78;;;;;;;;;;5040155;28;20084;-67
2023/08/26 06:22:19;;;;;;;16.38;7.57;;;;;;;;;;5025325;28;20055;-68
2023/08/26 06:24:46;;;;;;;17.95;7.07;;;;;;;;;;5024497;28;20037;-68
2023/08/26 06:27:11;;;;;;;13.15;5.60;;;;;;;;;;5023738;28;20057;-68
2023/08/26 06:29:43;;;;;;;16.63;6.38;;;;;;;;;;5041276;28;20524;-68
2023/08/26 06:32:10;;;;;;;15.65;6.75;;;;;;;;;;5023989;28;20044;-69
2023/08/26 06:34:39;;;;;;;17.60;6.80;;;;;;;;;;5038322;28;20037;-68
2023/08/26 06:37:06;;;;;;;13.35;5.68;;;;;;;;;;5000671;28;20041;-70
2023/08/26 06:39:32;;;;;;;13.63;5.35;;;;;;;;;;4966331;28;20432;-70
2023/08/26 06:41:58;;;;;;;8.65;4.57;;;;;;;;;;4998446;28;20034;-69
2023/08/26 06:44:27;;;;;;;8.05;4.70;;;;;;;;;;5000908;28;20042;-70
2023/08/26 06:46:53;;;;;;;7.53;4.50;;;;;;;;;;5000390;28;20046;-70
2023/08/26 06:49:18;;;;;;;9.02;3.95;;;;;;;;;;4960612;28;20042;-70
2023/08/26 06:51:44;;;;;;;5.32;3.67;;;;;;;;;;4945665;28;20043;-69
2023/08/26 06:54:11;;;;;;;10.38;4.10;;;;;;;;;;4964319;28;20050;-69
2023/08/26 06:56:37;;;;;;;10.13;4.07;;;;;;;;;;4947486;28;20051;-69
2023/08/26 06:59:03;;;;;;;11.68;4.53;;;;;;;;;;4946051;28;20031;-69
2023/08/26 07:01:31;;;;;;;8.40;3.85;;;;;;;;;;4948207;28;20947;-68
2023/08/26 07:04:04;;;;;;;7.47;3.85;;;;;;;;;;4935972;29;20055;-68
2023/08/26 07:06:31;;;;;;;6.55;2.83;;;;;;;;;;4936238;29;20066;-68
2023/08/26 07:08:58;;;;;;;4.45;2.85;;;;;;;;;;4942711;28;20108;-68
2023/08/26 07:11:23;;;;;;;5.50;2.83;;;;;;;;;;4964541;28;20082;-67
2023/08/26 07:13:49;;;;;;;6.47;2.20;;;;;;;;;;4963715;28;20469;-69
2023/08/26 07:16:16;;;;;;;5.57;2.53;;;;;;;;;;4990724;28;20038;-68
2023/08/26 07:18:42;;;;;;;8.90;2.50;;;;;;;;;;4975224;28;20473;-69
2023/08/26 07:21:08;;;;;;;5.20;2.50;;;;;;;;;;5019959;28;20049;-68
2023/08/26 07:23:35;;;;;;;10.30;4.57;;;;;;;;;;5027804;28;20045;-68
2023/08/26 07:26:01;;;;;;;5.50;2.75;;;;;;;;;;5040130;28;20064;-69
2023/08/26 07:28:29;;;;;;;7.70;2.47;;;;;;;;;;5031848;28;20048;-69
2023/08/26 07:31:00;;;;;;;12.52;3.25;;;;;;;;;;5035767;28;20116;-67
2023/08/26 07:33:26;;;;;;;4.45;2.28;;;;;;;;;;5030351;28;20116;-68
2023/08/26 07:35:53;;;;;;;5.38;2.60;;;;;;;;;;5029936;28;20465;-69
2023/08/26 07:38:19;;;;;;;6.28;2.92;;;;;;;;;;5040392;28;20043;-69
2023/08/26 07:40:45;;;;;;;4.22;2.40;;;;;;;;;;5049591;28;20041;-69
2023/08/26 07:43:11;;;;;;;7.82;2.30;;;;;;;;;;5033028;28;20438;-68
2023/08/26 07:45:37;;;;;;;6.13;2.58;;;;;;;;;;5017420;28;20055;-68
2023/08/26 07:48:02;;;;;;;6.57;2.25;;;;;;;;;;5016443;28;20107;-69
2023/08/26 07:50:28;;;;;;;8.27;2.25;;;;;;;;;;5032459;28;20041;-69
2023/08/26 07:52:54;;;;;;;5.70;2.10;;;;;;;;;;5049625;28;20049;-68
2023/08/26 07:55:20;;;;;;;6.72;2.08;;;;;;;;;;5049766;28;20037;-69
2023/08/26 07:57:46;;;;;;;5.35;1.90;;;;;;;;;;5032899;28;20033;-68
2023/08/26 08:00:13;;;;;;;5.05;2.00;;;;;;;;;;5049501;28;20048;-68
2023/08/26 08:02:39;;;;;;;7.47;1.88;;;;;;;;;;5050264;28;20506;-68
2023/08/26 08:05:05;;;;;;;6.13;2.17;;;;;;;;;;5051107;28;20037;-68
2023/08/26 08:07:30;;;;;;;7.40;2.65;;;;;;;;;;5051767;28;20052;-68
2023/08/26 08:09:56;;;;;;;7.45;2.75;;;;;;;;;;5050924;28;20041;-68
2023/08/26 08:12:21;;;;;;;4.85;2.28;;;;;;;;;;5050844;28;20418;-69
2023/08/26 08:14:47;;;;;;;6.50;2.42;;;;;;;;;;5051282;28;20071;-69
2023/08/26 08:17:13;;;;;;;8.13;2.70;;;;;;;;;;5050506;28;20410;-70
2023/08/26 08:19:39;;;;;;;5.47;2.65;;;;;;;;;;5050858;28;20036;-68
2023/08/26 08:22:06;;;;;;;6.85;2.33;;;;;;;;;;5050460;28;20482;-71
2023/08/26 08:24:32;;;;;;;3.45;2.40;;;;;;;;;;5017231;28;20456;-68
2023/08/26 08:27:00;;;;;;;6.93;2.90;;;;;;;;;;5034345;28;20033;-69
2023/08/26 08:29:26;;;;;;;7.65;2.45;;;;;;;;;;5050271;28;20102;-68
2023/08/26 08:31:52;;;;;;;5.88;2.92;;;;;;;;;;5017695;28;20037;-70
2023/08/26 08:34:19;;;;;;;6.75;2.72;;;;;;;;;;5050236;28;20083;-68
2023/08/26 08:36:44;;;;;;;5.40;2.67;;;;;;;;;;5033390;28;20032;-69
2023/08/26 08:39:10;;;;;;;6.90;3.05;;;;;;;;;;5051058;28;20040;-67
2023/08/26 08:41:36;;;;;;;4.70;2.20;;;;;;;;;;5033605;28;20044;-69
2023/08/26 08:44:09;;;;;;;7.30;2.42;;;;;;;;;;5033052;28;20071;-69
2023/08/26 08:46:36;;;;;;;4.72;2.40;;;;;;;;;;5049791;28;20463;-69
2023/08/26 08:49:02;;;;;;;2.70;2.10;;;;;;;;;;5032840;28;20040;-70
2023/08/26 08:51:29;;;;;;;6.03;2.40;;;;;;;;;;5050773;28;20100;-69
2023/08/26 08:53:56;;;;;;;4.18;2.28;;;;;;;;;;5033287;28;20087;-69
2023/08/26 08:56:21;;;;;;;3.42;2.30;;;;;;;;;;5050718;28;20045;-69
2023/08/26 08:58:48;;;;;;;7.68;2.10;;;;;;;;;;5033239;28;20443;-69
2023/08/26 09:01:15;;;;;;;6.13;2.05;;;;;;;;;;5033316;28;20182;-69
2023/08/26 09:03:40;;;;;;;3.85;2.40;;;;;;;;;;5050579;28;20075;-70
2023/08/26 09:06:07;;;;;;;7.50;2.20;;;;;;;;;;5050226;28;20167;-69
2023/08/26 09:08:32;;;;;;;7.70;2.78;;;;;;;;;;5033391;28;20444;-68
2023/08/26 09:10:58;;;;;;;3.90;1.80;;;;;;;;;;5039590;28;20036;-69
2023/08/26 09:13:24;;;;;;;3.40;2.60;;;;;;;;;;5055950;28;20036;-69
2023/08/26 09:15:50;;;;;;;4.10;2.25;;;;;;;;;;5028507;28;20375;-69
2023/08/26 09:18:18;;;;;;;6.60;2.20;;;;;;;;;;5000693;28;20029;-70
2023/08/26 09:20:48;;;;;;;4.43;2.28;;;;;;;;;;5034959;28;20033;-71
2023/08/26 09:23:18;;;;;;;4.50;2.30;;;;;;;;;;5007026;28;20029;-68
2023/08/26 09:25:52;;;;;;;3.90;2.15;;;;;;;;;;4994878;28;20045;-69
2023/08/26 09:28:18;;;;;;;4.78;2.20;;;;;;;;;;5025824;28;20044;-69
2023/08/26 09:31:05;;;;;;;3.45;2.10;;;;;;;;;;5042032;28;20475;-69
2023/08/26 09:33:31;;;;;;;3.38;2.40;;;;;;;;;;5032655;28;20037;-69
2023/08/26 09:35:58;;;;;;;4.15;2.20;;;;;;;;;;5033355;28;20039;-69
2023/08/26 09:38:24;;;;;;;3.05;2.10;;;;;;;;;;5032629;28;20049;-69
2023/08/26 09:40:54;;;;;;;8.50;3.65;;;;;;;;;;5050265;28;20044;-68
2023/08/26 09:43:20;;;;;;;7.82;4.05;;;;;;;;;;5034263;28;20053;-71
2023/08/26 09:45:47;;;;;;;6.93;4.18;;;;;;;;;;5027769;28;20126;-69
2023/08/26 09:48:23;;;;;;;6.82;4.13;;;;;;;;;;5036435;28;20068;-70
2023/08/26 09:50:51;;;;;;;12.07;5.18;;;;;;;;;;5042279;28;20479;-70
2023/08/26 09:53:32;;;;;;;7.22;4.85;;;;;;;;;;5017214;28;20131;-70
2023/08/26 09:55:59;;;;;;;12.15;4.47;;;;;;;;;;5033525;28;20061;-69
2023/08/26 09:58:25;;;;;;;8.18;3.95;;;;;;;;;;5032735;28;20095;-68
2023/08/26 10:00:53;;;;;;;5.43;3.90;;;;;;;;;;5032499;28;20460;-69
2023/08/26 10:03:22;;;;;;;3.30;2.38;;;;;;;;;;5015514;28;20037;-68
2023/08/26 10:05:49;;;;;;;3.13;2.53;;;;;;;;;;5033083;28;20542;-68
2023/08/26 10:08:15;;;;;;;4.47;2.55;;;;;;;;;;5033010;28;20138;-68
2023/08/26 10:10:49;;;;;;;4.57;3.00;;;;;;;;;;5035139;28;20083;-68
2023/08/26 10:13:19;;;;;;;6.53;2.88;;;;;;;;;;5035075;28;20070;-69
2023/08/26 10:15:48;;;;;;;7.03;2.95;;;;;;;;;;5033804;28;20510;-68
2023/08/26 10:18:16;;;;;;;5.43;3.43;;;;;;;;;;5033520;28;20103;-68
2023/08/26 10:20:43;;;;;;;6.05;2.40;;;;;;;;;;5033093;28;20487;-68
2023/08/26 10:23:10;;;;;;;6.18;2.85;;;;;;;;;;5033166;28;20404;-68
2023/08/26 10:25:37;;;;;;;4.00;2.85;;;;;;;;;;5033299;28;20052;-68
2023/08/26 10:28:03;;;;;;;3.80;2.75;;;;;;;;;;5032413;28;20066;-69
2023/08/26 10:30:30;;;;;;;4.63;3.45;;;;;;;;;;5032848;28;20033;-68
2023/08/26 10:33:00;;;;;;;7.57;3.30;;;;;;;;;;5016000;28;20144;-69
2023/08/26 10:35:27;;;;;;;5.25;3.38;;;;;;;;;;5032596;28;20083;-68
2023/08/26 10:38:13;;;;;;;8.10;3.60;;;;;;;;;;5033545;28;20033;-69
2023/08/26 10:40:39;;;;;;;4.90;3.50;;;;;;;;;;5032384;28;20025;-69
2023/08/26 10:43:06;;;;;;;5.28;3.50;;;;;;;;;;5032660;28;20060;-68
2023/08/26 10:45:32;;;;;;;6.10;3.47;;;;;;;;;;5015776;28;20040;-68
2023/08/26 10:48:00;;;;;;;9.23;3.53;;;;;;;;;;5033298;28;20061;-68
2023/08/26 10:50:26;;;;;;;7.95;3.22;;;;;;;;;;5032073;28;20048;-68
2023/08/26 10:52:56;;;;;;;8.27;3.25;;;;;;;;;;5033271;28;20029;-69
2023/08/26 10:55:22;;;;;;;6.55;3.28;;;;;;;;;;5034210;28;20052;-69
2023/08/26 10:58:02;;;;;;;4.78;3.22;;;;;;;;;;5033488;28;20092;-68
2023/08/26 11:00:29;;;;;;;4.38;3.10;;;;;;;;;;5015133;28;20098;-69
2023/08/26 11:02:57;;;;;;;6.95;4.00;;;;;;;;;;5032189;28;20124;-69
2023/08/26 11:05:23;;;;;;;8.98;3.97;;;;;;;;;;5014992;28;20033;-69
2023/08/26 11:07:49;;;;;;;5.38;3.72;;;;;;;;;;5034706;28;20025;-69
2023/08/26 11:10:27;;;;;;;7.47;3.97;;;;;;;;;;5025375;28;20357;-68
2023/08/26 11:12:54;;;;;;;6.13;3.90;;;;;;;;;;5044239;28;20485;-69
2023/08/26 11:15:20;;;;;;;10.70;4.40;;;;;;;;;;5041430;28;20034;-69
2023/08/26 11:17:50;;;;;;;10.05;4.13;;;;;;;;;;5025902;28;20068;-69
2023/08/26 11:20:19;;;;;;;6.35;4.18;;;;;;;;;;5040325;28;20052;-68
2023/08/26 11:22:45;;;;;;;9.95;5.00;;;;;;;;;;5040217;28;20556;-69
2023/08/26 11:25:14;;;;;;;8.15;4.63;;;;;;;;;;5039540;28;20028;-69
2023/08/26 11:27:39;;;;;;;10.38;5.15;;;;;;;;;;5024651;28;20056;-69
2023/08/26 11:30:08;;;;;;;5.97;3.75;;;;;;;;;;5040171;28;20472;-68
2023/08/26 11:32:37;;;;;;;6.22;4.28;;;;;;;;;;5041480;28;20029;-68
2023/08/26 11:35:12;;;;;;;5.88;4.25;;;;;;;;;;5023998;28;20048;-67
2023/08/26 11:37:42;;;;;;;5.45;3.90;;;;;;;;;;5040644;28;20103;-68
2023/08/26 11:40:08;;;;;;;6.28;4.50;;;;;;;;;;5034586;28;20116;-67
2023/08/26 11:42:34;;;;;;;7.03;4.70;;;;;;;;;;4999717;28;20080;-67
2023/08/26 11:44:59;;;;;;;6.18;4.43;;;;;;;;;;5016979;28;20096;-68
2023/08/26 11:47:25;;;;;;;6.15;4.35;;;;;;;;;;5000578;28;20068;-67
2023/08/26 11:49:55;;;;;;;8.50;4.60;;;;;;;;;;5033288;28;20024;-67
2023/08/26 11:52:41;;;;;;;9.60;4.05;;;;;;;;;;5000666;28;20426;-68
2023/08/26 11:55:08;;;;;;;8.30;4.40;;;;;;;;;;5033952;28;20106;-67
2023/08/26 11:57:35;;;;;;;10.18;4.95;;;;;;;;;;5033543;28;20045;-67
2023/08/26 12:00:16;;;;;;;8.63;4.70;;;;;;;;;;5050099;28;20059;-68
2023/08/26 12:02:52;;;;;;;9.05;4.68;;;;;;;;;;5003096;28;20099;-67
2023/08/26 12:05:19;;;;;;;10.68;4.90;;;;;;;;;;5060731;28;20037;-67
2023/08/26 12:07:46;;;;;;;13.48;5.10;;;;;;;;;;5037590;28;20153;-67
2023/08/26 12:10:13;;;;;;;10.10;5.70;;;;;;;;;;5032834;28;20526;-66
2023/08/26 12:12:39;;;;;;;13.15;5.72;;;;;;;;;;5029756;28;20523;-68
2023/08/26 12:15:09;;;;;;;10.25;5.75;;;;;;;;;;5013181;28;20388;-68
2023/08/26 12:17:47;;;;;;;14.82;6.43;;;;;;;;;;4996156;28;20041;-67
2023/08/26 12:20:21;;;;;;;10.88;6.18;;;;;;;;;;5029334;28;20443;-67
2023/08/26 12:22:47;;;;;;;10.65;6.35;;;;;;;;;;5030169;28;20049;-67
2023/08/26 12:25:22;;;;;;;12.02;6.43;;;;;;;;;;5013569;28;20048;-67
2023/08/26 12:27:47;;;;;;;12.68;6.75;;;;;;;;;;4996310;28;20049;-67
2023/08/26 12:30:14;;;;;;;11.38;6.47;;;;;;;;;;5012698;28;20479;-67
2023/08/26 12:32:40;;;;;;;9.80;6.20;;;;;;;;;;5028868;28;20041;-67
2023/08/26 12:35:08;;;;;;;11.18;6.40;;;;;;;;;;5013340;28;20036;-68
2023/08/26 12:37:34;;;;;;;12.77;6.90;;;;;;;;;;5013695;28;20048;-68
2023/08/26 12:40:03;;;;;;;12.20;7.35;;;;;;;;;;5030284;28;20460;-68
2023/08/26 12:42:29;;;;;;;13.80;7.63;;;;;;;;;;5029510;28;20061;-69
2023/08/26 12:44:54;;;;;;;17.20;6.95;;;;;;;;;;5030073;28;20033;-67
2023/08/26 12:47:20;;;;;;;15.18;7.47;;;;;;;;;;5030242;28;20045;-69
2023/08/26 12:49:45;;;;;;;14.38;7.80;;;;;;;;;;5030694;28;20030;-66
2023/08/26 12:52:11;;;;;;;14.05;7.55;;;;;;;;;;5014315;28;20033;-66
2023/08/26 12:54:36;;;;;;;17.67;7.82;;;;;;;;;;5036557;28;20025;-67
2023/08/26 12:57:02;;;;;;;14.38;8.45;;;;;;;;;;5054646;28;20072;-68
2023/08/26 12:59:28;;;;;;;12.18;6.38;;;;;;;;;;5050102;28;20033;-68
2023/08/26 13:01:54;;;;;;;12.98;7.05;;;;;;;;;;5051170;28;20425;-68
2023/08/26 13:04:19;;;;;;;9.18;5.88;;;;;;;;;;5030567;28;20034;-67
2023/08/26 13:06:45;;;;;;;10.23;6.55;;;;;;;;;;5031813;28;20041;-67
2023/08/26 13:09:11;;;;;;;23.17;7.07;;;;;;;;;;5030274;28;20369;-67
2023/08/26 13:11:36;;;;;;;12.32;6.00;;;;;;;;;;5029424;28;20528;-68
2023/08/26 13:14:02;;;;;;;10.43;6.55;;;;;;;;;;5029855;28;20036;-67
2023/08/26 13:16:27;;;;;;;12.63;6.82;;;;;;;;;;5033196;28;20170;-69
2023/08/26 13:18:53;;;;;;;12.00;7.07;;;;;;;;;;5049766;28;20438;-68
2023/08/26 13:21:18;;;;;;;22.05;8.25;;;;;;;;;;5033078;28;20392;-67
2023/08/26 13:23:44;;;;;;;17.23;10.32;;;;;;;;;;5016647;28;20106;-66
2023/08/26 13:26:10;;;;;;;13.57;6.78;;;;;;;;;;5049791;28;20037;-68
2023/08/26 13:28:35;;;;;;;16.40;9.20;;;;;;;;;;5049738;28;20135;-66
2023/08/26 13:31:02;;;;;;;10.98;8.07;;;;;;;;;;5033302;28;20033;-68
2023/08/26 13:33:28;;;;;;;15.65;9.35;;;;;;;;;;5049309;28;20139;-67
2023/08/26 13:35:54;;;;;;;13.52;9.50;;;;;;;;;;5050561;28;20039;-67
2023/08/26 13:38:19;;;;;;;15.80;9.38;;;;;;;;;;5049615;28;20040;-66
2023/08/26 13:40:45;;;;;;;16.35;9.18;;;;;;;;;;5050666;28;20380;-67
2023/08/26 13:43:11;;;;;;;10.32;6.03;;;;;;;;;;5048956;28;20403;-66
2023/08/26 13:45:36;;;;;;;12.18;8.32;;;;;;;;;;5050563;28;20033;-68
2023/08/26 13:48:02;;;;;;;9.90;7.95;;;;;;;;;;5049337;28;20040;-68
2023/08/26 13:50:29;;;;;;;14.70;8.50;;;;;;;;;;5049978;28;20040;-67
2023/08/26 13:52:56;;;;;;;15.45;10.18;;;;;;;;;;5068083;28;20052;-67
2023/08/26 13:55:21;;;;;;;15.00;7.90;;;;;;;;;;5068965;28;20036;-67
2023/08/26 13:57:48;;;;;;;10.55;6.68;;;;;;;;;;5038737;28;20156;-67
2023/08/26 14:00:14;;;;;;;11.57;6.70;;;;;;;;;;5071872;28;20032;-70
2023/08/26 14:02:41;;;;;;;9.73;6.25;;;;;;;;;;5071706;28;20056;-68
2023/08/26 14:05:07;;;;;;;10.60;5.93;;;;;;;;;;5039384;28;20047;-68
2023/08/26 14:07:33;;;;;;;12.05;6.50;;;;;;;;;;5038804;28;20045;-67
2023/08/26 14:09:59;;;;;;;12.13;6.65;;;;;;;;;;5055541;28;20116;-67
2023/08/26 14:12:25;;;;;;;16.40;6.82;;;;;;;;;;5054246;28;20392;-67
2023/08/26 14:14:50;;;;;;;8.98;6.05;;;;;;;;;;5055241;28;20052;-67
2023/08/26 14:17:18;;;;;;;11.15;6.03;;;;;;;;;;5055255;28;20489;-68
2023/08/26 14:19:44;;;;;;;15.52;7.97;;;;;;;;;;5071872;28;20502;-66
2023/08/26 14:22:09;;;;;;;15.27;8.75;;;;;;;;;;5055213;28;20079;-67
2023/08/26 14:24:35;;;;;;;12.15;6.70;;;;;;;;;;5052670;28;20542;-67
2023/08/26 14:27:00;;;;;;;10.05;6.40;;;;;;;;;;5053325;28;20036;-67
2023/08/26 14:29:26;;;;;;;10.32;5.85;;;;;;;;;;5052939;28;20093;-67
2023/08/26 14:31:52;;;;;;;11.98;6.88;;;;;;;;;;5053678;28;20047;-68
2023/08/26 14:34:18;;;;;;;12.18;6.50;;;;;;;;;;5035969;28;20041;-67